sensor_id;sensor_type;location;lat;lon;timestamp;pressure;altitude;pressure_sealevel;temperature;humidity
69528;BME280;57136;51.986;4.468;2022-11-10T00:00:17;101707.91;;;12.65;100.00
69528;BME280;57136;51.986;4.468;2022-11-10T00:02:43;101701.78;;;12.62;100.00
69528;BME280;57136;51.986;4.468;2022-11-10T00:05:09;101725.25;;;12.54;100.00
69528;BME280;57136;51.986;4.468;2022-11-10T00:07:35;101726.97;;;12.53;100.00
69528;BME280;57136;51.986;4.468;2022-11-10T00:10:01;101729.66;;;12.61;100.00
69528;BME280;57136;51.986;4.468;2022-11-10T00:12:26;101725.97;;;12.42;100.00
69528;BME280;57136;51.986;4.468;2022-11-10T00:14:52;101725.34;;;12.63;100.00
69528;BME280;57136;51.986;4.468;2022-11-10T00:17:36;101727.91;;;12.58;100.00
69528;BME280;57136;51.986;4.468;2022-11-10T00:20:01;101728.78;;;12.59;100.00
69528;BME280;57136;51.986;4.468;2022-11-10T00:22:27;101735.00;;;12.72;100.00
69528;BME280;57136;51.986;4.468;2022-11-10T00:24:52;101733.09;;;12.55;100.00
69528;BME280;57136;51.986;4.468;2022-11-10T00:27:18;101734.06;;;12.64;100.00
69528;BME280;57136;51.986;4.468;2022-11-10T00:29:43;101733.09;;;12.54;100.00
69528;BME280;57136;51.986;4.468;2022-11-10T00:32:09;101729.59;;;12.55;100.00
69528;BME280;57136;51.986;4.468;2022-11-10T00:34:35;101733.06;;;12.52;100.00
69528;BME280;57136;51.986;4.468;2022-11-10T00:37:00;101726.13;;;12.54;100.00
69528;BME280;57136;51.986;4.468;2022-11-10T00:39:26;101727.09;;;12.63;100.00
69528;BME280;57136;51.986;4.468;2022-11-10T00:41:51;101730.56;;;12.62;100.00
69528;BME280;57136;51.986;4.468;2022-11-10T00:44:17;101727.19;;;12.73;100.00
69528;BME280;57136;51.986;4.468;2022-11-10T00:46:42;101732.38;;;12.70;100.00
69528;BME280;57136;51.986;4.468;2022-11-10T00:49:08;101736.78;;;12.74;100.00
69528;BME280;57136;51.986;4.468;2022-11-10T00:51:33;101740.34;;;12.80;100.00
69528;BME280;57136;51.986;4.468;2022-11-10T00:53:58;101750.94;;;12.94;100.00
69528;BME280;57136;51.986;4.468;2022-11-10T00:56:24;101753.53;;;12.94;100.00
69528;BME280;57136;51.986;4.468;2022-11-10T00:58:50;101746.59;;;12.96;100.00
69528;BME280;57136;51.986;4.468;2022-11-10T01:01:17;101749.13;;;12.89;100.00
69528;BME280;57136;51.986;4.468;2022-11-10T01:03:43;101743.88;;;12.88;100.00
69528;BME280;57136;51.986;4.468;2022-11-10T01:06:11;101749.84;;;12.73;100.00
69528;BME280;57136;51.986;4.468;2022-11-10T01:08:37;101746.44;;;12.79;100.00
69528;BME280;57136;51.986;4.468;2022-11-10T01:11:04;101759.56;;;12.88;100.00
69528;BME280;57136;51.986;4.468;2022-11-10T01:13:31;101749.16;;;12.93;100.00
69528;BME280;57136;51.986;4.468;2022-11-10T01:16:03;101755.19;;;12.85;100.00
69528;BME280;57136;51.986;4.468;2022-11-10T01:18:28;101759.47;;;12.77;100.00
69528;BME280;57136;51.986;4.468;2022-11-10T01:20:53;101769.72;;;12.55;100.00
69528;BME280;57136;51.986;4.468;2022-11-10T01:23:19;101763.56;;;12.52;100.00
69528;BME280;57136;51.986;4.468;2022-11-10T01:25:44;101764.47;;;12.54;100.00
69528;BME280;57136;51.986;4.468;2022-11-10T01:28:10;101755.78;;;12.56;100.00
69528;BME280;57136;51.986;4.468;2022-11-10T01:30:35;101764.47;;;12.57;100.00
69528;BME280;57136;51.986;4.468;2022-11-10T01:33:00;101763.69;;;12.64;100.00
69528;BME280;57136;51.986;4.468;2022-11-10T01:35:26;101771.47;;;12.56;100.00
69528;BME280;57136;51.986;4.468;2022-11-10T01:37:51;101769.72;;;12.55;100.00
69528;BME280;57136;51.986;4.468;2022-11-10T01:40:18;101764.38;;;12.46;100.00
69528;BME280;57136;51.986;4.468;2022-11-10T01:47:53;101769.91;;;12.72;100.00
69528;BME280;57136;51.986;4.468;2022-11-10T01:50:19;101775.00;;;12.62;100.00
69528;BME280;57136;51.986;4.468;2022-11-10T01:52:47;101779.28;;;12.55;100.00
69528;BME280;57136;51.986;4.468;2022-11-10T01:55:14;101777.44;;;12.46;100.00
69528;BME280;57136;51.986;4.468;2022-11-10T01:57:40;101784.56;;;12.61;100.00
69528;BME280;57136;51.986;4.468;2022-11-10T02:00:07;101793.31;;;12.62;100.00
69528;BME280;57136;51.986;4.468;2022-11-10T02:02:40;101800.22;;;12.56;100.00
69528;BME280;57136;51.986;4.468;2022-11-10T02:05:07;101805.56;;;12.66;100.00
69528;BME280;57136;51.986;4.468;2022-11-10T02:07:33;101802.75;;;12.50;100.00
69528;BME280;57136;51.986;4.468;2022-11-10T02:10:04;101811.25;;;12.31;100.00
69528;BME280;57136;51.986;4.468;2022-11-10T02:12:31;101805.34;;;12.46;100.00
69528;BME280;57136;51.986;4.468;2022-11-10T02:15:04;101819.38;;;12.57;100.00
69528;BME280;57136;51.986;4.468;2022-11-10T02:17:30;101816.03;;;12.66;100.00
69528;BME280;57136;51.986;4.468;2022-11-10T02:20:00;101817.63;;;12.53;100.00
69528;BME280;57136;51.986;4.468;2022-11-10T02:22:31;101819.34;;;12.51;100.00
69528;BME280;57136;51.986;4.468;2022-11-10T02:24:58;101821.91;;;12.49;100.00
69528;BME280;57136;51.986;4.468;2022-11-10T02:27:23;101833.16;;;12.42;100.00
69528;BME280;57136;51.986;4.468;2022-11-10T02:29:49;101834.94;;;12.44;100.00
69528;BME280;57136;51.986;4.468;2022-11-10T02:32:14;101844.38;;;12.33;100.00
69528;BME280;57136;51.986;4.468;2022-11-10T02:34:40;101842.56;;;12.29;100.00
69528;BME280;57136;51.986;4.468;2022-11-10T02:37:05;101839.81;;;12.18;100.00
69528;BME280;57136;51.986;4.468;2022-11-10T02:39:31;101838.13;;;12.22;100.00
69528;BME280;57136;51.986;4.468;2022-11-10T02:41:56;101845.06;;;12.20;100.00
69528;BME280;57136;51.986;4.468;2022-11-10T02:44:21;101851.22;;;12.23;100.00
69528;BME280;57136;51.986;4.468;2022-11-10T02:46:47;101843.41;;;12.26;100.00
69528;BME280;57136;51.986;4.468;2022-11-10T02:49:12;101851.16;;;12.20;100.00
69528;BME280;57136;51.986;4.468;2022-11-10T02:51:37;101854.78;;;12.28;100.00
69528;BME280;57136;51.986;4.468;2022-11-10T02:54:03;101855.63;;;12.26;100.00
69528;BME280;57136;51.986;4.468;2022-11-10T02:56:31;101863.44;;;12.24;100.00
69528;BME280;57136;51.986;4.468;2022-11-10T02:58:56;101863.31;;;12.17;100.00
69528;BME280;57136;51.986;4.468;2022-11-10T03:01:22;101868.69;;;12.26;100.00
69528;BME280;57136;51.986;4.468;2022-11-10T03:03:47;101870.31;;;12.19;100.00
69528;BME280;57136;51.986;4.468;2022-11-10T03:06:13;101864.22;;;12.20;100.00
69528;BME280;57136;51.986;4.468;2022-11-10T03:08:38;101872.88;;;12.16;100.00
69528;BME280;57136;51.986;4.468;2022-11-10T03:11:04;101870.25;;;12.16;100.00
69528;BME280;57136;51.986;4.468;2022-11-10T03:13:29;101876.34;;;12.13;100.00
69528;BME280;57136;51.986;4.468;2022-11-10T03:16:00;101884.97;;;12.09;100.00
69528;BME280;57136;51.986;4.468;2022-11-10T03:18:25;101884.13;;;12.09;100.00
69528;BME280;57136;51.986;4.468;2022-11-10T03:20:50;101885.72;;;12.01;100.00
69528;BME280;57136;51.986;4.468;2022-11-10T03:23:17;101885.88;;;12.11;100.00
69528;BME280;57136;51.986;4.468;2022-11-10T03:25:43;101892.00;;;12.13;100.00
69528;BME280;57136;51.986;4.468;2022-11-10T03:28:09;101886.00;;;12.19;100.00
69528;BME280;57136;51.986;4.468;2022-11-10T03:30:34;101881.75;;;12.27;100.00
69528;BME280;57136;51.986;4.468;2022-11-10T03:33:00;101890.16;;;12.05;100.00
69528;BME280;57136;51.986;4.468;2022-11-10T03:35:26;101894.56;;;12.09;100.00
69528;BME280;57136;51.986;4.468;2022-11-10T03:37:51;101895.13;;;11.91;100.00
69528;BME280;57136;51.986;4.468;2022-11-10T03:40:17;101887.63;;;12.11;100.00
69528;BME280;57136;51.986;4.468;2022-11-10T03:42:44;101894.56;;;12.09;100.00
69528;BME280;57136;51.986;4.468;2022-11-10T03:45:11;101897.09;;;12.04;100.00
69528;BME280;57136;51.986;4.468;2022-11-10T03:47:37;101908.44;;;12.06;100.00
69528;BME280;57136;51.986;4.468;2022-11-10T03:50:03;101910.88;;;11.95;100.00
69528;BME280;57136;51.986;4.468;2022-11-10T03:52:28;101910.19;;;12.06;100.00
69528;BME280;57136;51.986;4.468;2022-11-10T03:54:53;101903.25;;;12.08;100.00
69528;BME280;57136;51.986;4.468;2022-11-10T03:57:19;101919.69;;;12.02;100.00
69528;BME280;57136;51.986;4.468;2022-11-10T03:59:44;101922.78;;;12.32;100.00
69528;BME280;57136;51.986;4.468;2022-11-10T04:02:09;101923.44;;;12.18;100.00
69528;BME280;57136;51.986;4.468;2022-11-10T04:04:35;101924.13;;;12.05;100.00
69528;BME280;57136;51.986;4.468;2022-11-10T04:07:19;101934.31;;;11.92;100.00
69528;BME280;57136;51.986;4.468;2022-11-10T04:10:03;101932.88;;;12.08;100.00
69528;BME280;57136;51.986;4.468;2022-11-10T04:12:28;101946.69;;;12.01;100.00
69528;BME280;57136;51.986;4.468;2022-11-10T04:15:12;101946.22;;;12.27;100.00
69528;BME280;57136;51.986;4.468;2022-11-10T04:17:56;101942.53;;;12.12;100.00
69528;BME280;57136;51.986;4.468;2022-11-10T04:20:41;101958.09;;;12.05;100.00
69528;BME280;57136;51.986;4.468;2022-11-10T04:23:07;101950.47;;;12.20;100.00
69528;BME280;57136;51.986;4.468;2022-11-10T04:26:00;101947.69;;;12.09;100.00
69528;BME280;57136;51.986;4.468;2022-11-10T04:28:46;101948.84;;;11.76;100.00
69528;BME280;57136;51.986;4.468;2022-11-10T04:31:12;101954.56;;;12.03;100.00
69528;BME280;57136;51.986;4.468;2022-11-10T04:33:38;101954.41;;;11.96;100.00
69528;BME280;57136;51.986;4.468;2022-11-10T04:36:05;101963.25;;;12.02;100.00
69528;BME280;57136;51.986;4.468;2022-11-10T04:38:30;101972.59;;;11.89;100.00
69528;BME280;57136;51.986;4.468;2022-11-10T04:40:56;101981.53;;;12.02;100.00
69528;BME280;57136;51.986;4.468;2022-11-10T04:43:21;101982.06;;;11.85;100.00
69528;BME280;57136;51.986;4.468;2022-11-10T04:45:46;101978.97;;;12.05;100.00
69528;BME280;57136;51.986;4.468;2022-11-10T04:48:12;101978.06;;;12.03;100.00
69528;BME280;57136;51.986;4.468;2022-11-10T04:50:37;101974.47;;;11.96;100.00
69528;BME280;57136;51.986;4.468;2022-11-10T04:53:02;101976.38;;;12.05;100.00
69528;BME280;57136;51.986;4.468;2022-11-10T04:55:28;101989.44;;;12.05;100.00
69528;BME280;57136;51.986;4.468;2022-11-10T04:57:53;101993.94;;;12.13;100.00
69528;BME280;57136;51.986;4.468;2022-11-10T05:00:19;101994.78;;;12.14;100.00
69528;BME280;57136;51.986;4.468;2022-11-10T05:02:44;101991.13;;;12.03;100.00
69528;BME280;57136;51.986;4.468;2022-11-10T05:05:09;101986.88;;;12.08;100.00
69528;BME280;57136;51.986;4.468;2022-11-10T05:07:36;101991.19;;;12.07;100.00
69528;BME280;57136;51.986;4.468;2022-11-10T05:10:02;101990.28;;;12.04;100.00
69528;BME280;57136;51.986;4.468;2022-11-10T05:12:28;101999.84;;;12.03;100.00
69528;BME280;57136;51.986;4.468;2022-11-10T05:14:53;101993.72;;;12.01;100.00
69528;BME280;57136;51.986;4.468;2022-11-10T05:17:20;102008.44;;;11.97;100.00
69528;BME280;57136;51.986;4.468;2022-11-10T05:19:45;102000.84;;;12.11;100.00
69528;BME280;57136;51.986;4.468;2022-11-10T05:22:11;102005.75;;;11.94;100.00
69528;BME280;57136;51.986;4.468;2022-11-10T05:24:36;102006.78;;;12.01;100.00
69528;BME280;57136;51.986;4.468;2022-11-10T05:27:02;102001.69;;;12.09;100.00
69528;BME280;57136;51.986;4.468;2022-11-10T05:29:27;102007.56;;;11.97;100.00
69528;BME280;57136;51.986;4.468;2022-11-10T05:31:52;102012.09;;;12.06;100.00
69528;BME280;57136;51.986;4.468;2022-11-10T05:34:18;102020.91;;;12.12;100.00
69528;BME280;57136;51.986;4.468;2022-11-10T05:36:43;102022.56;;;12.07;100.00
69528;BME280;57136;51.986;4.468;2022-11-10T05:39:08;102021.66;;;12.05;100.00
69528;BME280;57136;51.986;4.468;2022-11-10T05:41:33;102022.56;;;12.07;100.00
69528;BME280;57136;51.986;4.468;2022-11-10T05:43:59;102015.69;;;12.11;100.00
69528;BME280;57136;51.986;4.468;2022-11-10T05:46:24;102018.22;;;12.08;100.00
69528;BME280;57136;51.986;4.468;2022-11-10T05:48:50;102010.47;;;12.12;100.00
69528;BME280;57136;51.986;4.468;2022-11-10T05:51:15;102016.56;;;12.13;100.00
69528;BME280;57136;51.986;4.468;2022-11-10T05:53:40;102021.63;;;12.04;100.00
69528;BME280;57136;51.986;4.468;2022-11-10T05:56:06;102019.72;;;11.95;100.00
69528;BME280;57136;51.986;4.468;2022-11-10T05:58:31;102034.53;;;11.96;100.00
69528;BME280;57136;51.986;4.468;2022-11-10T06:00:57;102028.41;;;11.95;100.00
69528;BME280;57136;51.986;4.468;2022-11-10T06:03:23;102029.38;;;11.99;100.00
69528;BME280;57136;51.986;4.468;2022-11-10T06:05:49;102038.00;;;11.95;100.00
69528;BME280;57136;51.986;4.468;2022-11-10T06:08:14;102036.56;;;12.11;100.00
69528;BME280;57136;51.986;4.468;2022-11-10T06:10:40;102050.44;;;12.08;100.00
69528;BME280;57136;51.986;4.468;2022-11-10T06:13:05;102049.72;;;12.16;100.00
69528;BME280;57136;51.986;4.468;2022-11-10T06:15:31;102052.13;;;12.05;100.00
69528;BME280;57136;51.986;4.468;2022-11-10T06:17:58;102062.72;;;12.14;100.00
69528;BME280;57136;51.986;4.468;2022-11-10T06:20:23;102060.09;;;12.11;100.00
69528;BME280;57136;51.986;4.468;2022-11-10T06:23:11;102055.97;;;12.27;100.00
69528;BME280;57136;51.986;4.468;2022-11-10T06:25:38;102054.88;;;12.12;100.00
69528;BME280;57136;51.986;4.468;2022-11-10T06:28:04;102062.66;;;12.09;100.00
69528;BME280;57136;51.986;4.468;2022-11-10T06:30:32;102066.06;;;12.04;100.00
69528;BME280;57136;51.986;4.468;2022-11-10T06:32:58;102074.94;;;12.15;100.00
69528;BME280;57136;51.986;4.468;2022-11-10T06:35:24;102073.22;;;12.16;100.00
69528;BME280;57136;51.986;4.468;2022-11-10T06:38:19;102082.84;;;12.18;100.00
69528;BME280;57136;51.986;4.468;2022-11-10T06:40:44;102093.03;;;12.03;100.00
69528;BME280;57136;51.986;4.468;2022-11-10T06:43:09;102088.72;;;12.05;100.00
69528;BME280;57136;51.986;4.468;2022-11-10T06:45:34;102095.13;;;12.22;100.00
69528;BME280;57136;51.986;4.468;2022-11-10T06:48:04;102101.84;;;12.09;100.00
69528;BME280;57136;51.986;4.468;2022-11-10T06:50:29;102109.13;;;12.26;100.00
69528;BME280;57136;51.986;4.468;2022-11-10T06:52:57;102118.56;;;12.19;100.00
69528;BME280;57136;51.986;4.468;2022-11-10T06:55:23;102123.75;;;12.16;100.00
69528;BME280;57136;51.986;4.468;2022-11-10T06:57:49;102121.50;;;12.35;100.00
69528;BME280;57136;51.986;4.468;2022-11-10T07:00:14;102126.66;;;12.32;100.00
69528;BME280;57136;51.986;4.468;2022-11-10T07:02:40;102135.22;;;12.24;100.00
69528;BME280;57136;51.986;4.468;2022-11-10T07:05:06;102137.91;;;12.29;100.00
69528;BME280;57136;51.986;4.468;2022-11-10T07:07:31;102143.97;;;12.26;100.00
69528;BME280;57136;51.986;4.468;2022-11-10T07:09:56;102145.75;;;12.27;100.00
69528;BME280;57136;51.986;4.468;2022-11-10T07:12:21;102142.34;;;12.32;100.00
69528;BME280;57136;51.986;4.468;2022-11-10T07:14:47;102136.28;;;12.34;100.00
69528;BME280;57136;51.986;4.468;2022-11-10T07:17:12;102139.94;;;12.44;100.00
69528;BME280;57136;51.986;4.468;2022-11-10T07:19:38;102133.94;;;12.50;100.00
69528;BME280;57136;51.986;4.468;2022-11-10T07:22:03;102123.25;;;12.36;100.00
69528;BME280;57136;51.986;4.468;2022-11-10T07:24:28;102136.56;;;12.50;100.00
69528;BME280;57136;51.986;4.468;2022-11-10T07:26:56;102130.88;;;12.76;100.00
69528;BME280;57136;51.986;4.468;2022-11-10T07:29:22;102132.59;;;12.75;100.00
69528;BME280;57136;51.986;4.468;2022-11-10T07:31:47;102153.56;;;12.77;100.00
69528;BME280;57136;51.986;4.468;2022-11-10T07:34:13;102155.41;;;12.82;100.00
69528;BME280;57136;51.986;4.468;2022-11-10T07:36:38;102158.13;;;12.88;100.00
69528;BME280;57136;51.986;4.468;2022-11-10T07:39:04;102159.03;;;12.91;100.00
69528;BME280;57136;51.986;4.468;2022-11-10T07:41:29;102150.56;;;12.53;100.00
69528;BME280;57136;51.986;4.468;2022-11-10T07:43:55;102166.78;;;12.86;100.00
69528;BME280;57136;51.986;4.468;2022-11-10T07:46:20;102171.44;;;13.04;100.00
69528;BME280;57136;51.986;4.468;2022-11-10T07:48:45;102176.06;;;13.22;100.00
69528;BME280;57136;51.986;4.468;2022-11-10T07:51:11;102165.44;;;13.11;100.00
69528;BME280;57136;51.986;4.468;2022-11-10T07:53:37;102157.91;;;13.33;100.00
69528;BME280;57136;51.986;4.468;2022-11-10T07:56:04;102165.13;;;13.46;100.00
69528;BME280;57136;51.986;4.468;2022-11-10T07:58:29;102185.16;;;13.44;100.00
69528;BME280;57136;51.986;4.468;2022-11-10T08:00:55;102172.97;;;13.48;100.00
69528;BME280;57136;51.986;4.468;2022-11-10T08:03:20;102170.72;;;13.14;100.00
69528;BME280;57136;51.986;4.468;2022-11-10T08:05:46;102176.28;;;13.34;100.00
69528;BME280;57136;51.986;4.468;2022-11-10T08:08:12;102189.88;;;13.12;100.00
69528;BME280;57136;51.986;4.468;2022-11-10T08:10:39;102189.97;;;13.18;100.00
69528;BME280;57136;51.986;4.468;2022-11-10T08:13:07;102185.34;;;13.58;100.00
69528;BME280;57136;51.986;4.468;2022-11-10T08:15:33;102200.94;;;13.47;100.00
69528;BME280;57136;51.986;4.468;2022-11-10T08:18:21;102203.13;;;13.83;99.45
69528;BME280;57136;51.986;4.468;2022-11-10T08:20:46;102201.88;;;13.54;99.43
69528;BME280;57136;51.986;4.468;2022-11-10T08:23:13;102215.03;;;13.57;100.00
69528;BME280;57136;51.986;4.468;2022-11-10T08:25:39;102220.78;;;13.96;98.99
69528;BME280;57136;51.986;4.468;2022-11-10T08:28:12;102223.44;;;13.99;98.33
69528;BME280;57136;51.986;4.468;2022-11-10T08:30:40;102226.09;;;14.04;97.21
69528;BME280;57136;51.986;4.468;2022-11-10T08:33:08;102227.94;;;14.11;97.01
69528;BME280;57136;51.986;4.468;2022-11-10T08:35:39;102220.69;;;13.88;98.07
69528;BME280;57136;51.986;4.468;2022-11-10T08:38:13;102222.41;;;13.88;98.48
69528;BME280;57136;51.986;4.468;2022-11-10T08:40:39;102237.44;;;14.03;97.92
69528;BME280;57136;51.986;4.468;2022-11-10T08:43:05;102226.84;;;13.92;98.54
69528;BME280;57136;51.986;4.468;2022-11-10T08:45:33;102233.38;;;14.30;97.14
69528;BME280;57136;51.986;4.468;2022-11-10T08:48:04;102227.34;;;14.35;95.95
69528;BME280;57136;51.986;4.468;2022-11-10T08:50:31;102230.75;;;14.28;96.36
69528;BME280;57136;51.986;4.468;2022-11-10T08:52:59;102225.72;;;14.45;95.89
69528;BME280;57136;51.986;4.468;2022-11-10T08:55:25;102227.06;;;14.95;93.50
69528;BME280;57136;51.986;4.468;2022-11-10T08:57:50;102234.59;;;15.69;89.25
69528;BME280;57136;51.986;4.468;2022-11-10T09:00:16;102229.47;;;15.91;87.11
69528;BME280;57136;51.986;4.468;2022-11-10T09:02:41;102225.84;;;15.73;87.04
69528;BME280;57136;51.986;4.468;2022-11-10T09:05:07;102226.41;;;15.20;88.87
69528;BME280;57136;51.986;4.468;2022-11-10T09:07:43;102228.22;;;15.32;89.56
69528;BME280;57136;51.986;4.468;2022-11-10T09:10:09;102219.69;;;15.67;88.10
69528;BME280;57136;51.986;4.468;2022-11-10T09:12:35;102228.38;;;15.55;88.29
69528;BME280;57136;51.986;4.468;2022-11-10T09:15:01;102232.72;;;15.51;88.00
69528;BME280;57136;51.986;4.468;2022-11-10T09:17:26;102231.97;;;15.71;87.63
69528;BME280;57136;51.986;4.468;2022-11-10T09:19:51;102239.56;;;15.24;90.09
69528;BME280;57136;51.986;4.468;2022-11-10T09:22:17;102244.19;;;15.61;89.29
69528;BME280;57136;51.986;4.468;2022-11-10T09:24:42;102250.56;;;15.99;87.54
69528;BME280;57136;51.986;4.468;2022-11-10T09:27:07;102247.06;;;16.06;86.28
69528;BME280;57136;51.986;4.468;2022-11-10T09:29:33;102253.94;;;15.85;86.87
69528;BME280;57136;51.986;4.468;2022-11-10T09:31:58;102253.19;;;16.02;86.31
69528;BME280;57136;51.986;4.468;2022-11-10T09:34:23;102263.84;;;16.38;85.22
69528;BME280;57136;51.986;4.468;2022-11-10T09:36:48;102267.38;;;16.43;84.34
69528;BME280;57136;51.986;4.468;2022-11-10T09:39:14;102256.72;;;16.13;84.67
69528;BME280;57136;51.986;4.468;2022-11-10T09:41:41;102261.25;;;16.55;84.38
69528;BME280;57136;51.986;4.468;2022-11-10T09:44:26;102263.03;;;16.82;83.24
69528;BME280;57136;51.986;4.468;2022-11-10T09:49:31;102272.78;;;16.99;81.37
69528;BME280;57136;51.986;4.468;2022-11-10T09:51:59;102278.03;;;17.37;79.53
69528;BME280;57136;51.986;4.468;2022-11-10T09:54:44;102282.38;;;17.59;78.58
69528;BME280;57136;51.986;4.468;2022-11-10T09:57:15;102293.72;;;18.06;76.61
69528;BME280;57136;51.986;4.468;2022-11-10T09:59:42;102309.44;;;18.32;75.13
69528;BME280;57136;51.986;4.468;2022-11-10T10:02:37;102321.91;;;17.80;76.90
69528;BME280;57136;51.986;4.468;2022-11-10T10:10:32;102349.84;;;16.54;83.28
69528;BME280;57136;51.986;4.468;2022-11-10T10:19:39;102359.56;;;16.75;83.04
69528;BME280;57136;51.986;4.468;2022-11-10T10:22:25;102351.72;;;16.92;82.72
69528;BME280;57136;51.986;4.468;2022-11-10T10:24:43;102346.50;;;17.03;82.13
69528;BME280;57136;51.986;4.468;2022-11-10T10:27:19;102343.72;;;16.57;84.35
69528;BME280;57136;51.986;4.468;2022-11-10T10:29:46;102336.66;;;16.51;84.63
69528;BME280;57136;51.986;4.468;2022-11-10T10:32:14;102336.81;;;17.01;83.17
69528;BME280;57136;51.986;4.468;2022-11-10T10:34:41;102340.19;;;16.48;84.03
69528;BME280;57136;51.986;4.468;2022-11-10T10:37:41;102349.84;;;16.50;85.06
69528;BME280;57136;51.986;4.468;2022-11-10T10:40:13;102343.63;;;16.35;85.14
69528;BME280;57136;51.986;4.468;2022-11-10T10:42:39;102355.13;;;16.60;84.77
69528;BME280;57136;51.986;4.468;2022-11-10T10:47:41;102369.91;;;16.29;84.85
69528;BME280;57136;51.986;4.468;2022-11-10T10:53:11;102373.50;;;16.48;84.83
69528;BME280;57136;51.986;4.468;2022-11-10T10:55:35;102372.50;;;16.23;85.43
69528;BME280;57136;51.986;4.468;2022-11-10T10:58:04;102374.31;;;16.33;85.70
69528;BME280;57136;51.986;4.468;2022-11-10T11:00:30;102369.75;;;16.04;86.14
69528;BME280;57136;51.986;4.468;2022-11-10T11:03:24;102375.06;;;16.09;85.90
69528;BME280;57136;51.986;4.468;2022-11-10T11:06:02;102375.94;;;16.08;86.57
69528;BME280;57136;51.986;4.468;2022-11-10T11:08:28;102384.59;;;15.94;86.62
69528;BME280;57136;51.986;4.468;2022-11-10T11:10:53;102384.72;;;16.11;85.98
69528;BME280;57136;51.986;4.468;2022-11-10T11:16:07;102396.25;;;16.35;85.45
69528;BME280;57136;51.986;4.468;2022-11-10T11:18:34;102403.38;;;16.55;84.24
69528;BME280;57136;51.986;4.468;2022-11-10T11:27:02;102420.94;;;16.65;84.19
69528;BME280;57136;51.986;4.468;2022-11-10T11:29:50;102421.03;;;16.88;83.25
69528;BME280;57136;51.986;4.468;2022-11-10T11:35:30;102422.44;;;16.12;85.79
69528;BME280;57136;51.986;4.468;2022-11-10T11:41:24;102405.63;;;15.93;86.39
69528;BME280;57136;51.986;4.468;2022-11-10T11:49:47;102420.03;;;16.58;83.46
69528;BME280;57136;51.986;4.468;2022-11-10T11:52:37;102439.34;;;16.62;83.45
69528;BME280;57136;51.986;4.468;2022-11-10T11:58:34;102435.78;;;16.47;83.85
69528;BME280;57136;51.986;4.468;2022-11-10T12:09:44;102441.09;;;16.57;83.56
69528;BME280;57136;51.986;4.468;2022-11-10T12:15:34;102442.53;;;16.07;84.90
69528;BME280;57136;51.986;4.468;2022-11-10T12:21:13;102443.47;;;16.13;85.64
69528;BME280;57136;51.986;4.468;2022-11-10T12:26:45;102441.81;;;16.31;84.49
69528;BME280;57136;51.986;4.468;2022-11-10T12:29:54;102433.09;;;16.38;84.40
69528;BME280;57136;51.986;4.468;2022-11-10T12:40:03;102441.09;;;16.60;83.87
69528;BME280;57136;51.986;4.468;2022-11-10T12:42:30;102440.22;;;16.56;82.85
69528;BME280;57136;51.986;4.468;2022-11-10T12:45:04;102435.97;;;16.94;82.07
69528;BME280;57136;51.986;4.468;2022-11-10T12:47:38;102438.53;;;16.72;82.03
69528;BME280;57136;51.986;4.468;2022-11-10T12:50:21;102439.38;;;16.65;81.50
69528;BME280;57136;51.986;4.468;2022-11-10T12:52:57;102441.22;;;16.82;82.03
69528;BME280;57136;51.986;4.468;2022-11-10T12:55:45;102443.88;;;16.91;81.07
69528;BME280;57136;51.986;4.468;2022-11-10T12:58:12;102433.31;;;16.91;81.29
69528;BME280;57136;51.986;4.468;2022-11-10T13:00:42;102439.44;;;16.87;81.84
69528;BME280;57136;51.986;4.468;2022-11-10T13:03:23;102446.31;;;16.47;82.67
69528;BME280;57136;51.986;4.468;2022-11-10T13:05:55;102434.09;;;16.65;82.49
69528;BME280;57136;51.986;4.468;2022-11-10T13:08:32;102431.25;;;16.23;84.17
69528;BME280;57136;51.986;4.468;2022-11-10T13:13:26;102430.56;;;16.54;83.47
69528;BME280;57136;51.986;4.468;2022-11-10T13:15:54;102427.19;;;16.95;82.36
69528;BME280;57136;51.986;4.468;2022-11-10T13:18:50;102415.84;;;16.98;82.28
69528;BME280;57136;51.986;4.468;2022-11-10T13:21:10;102407.75;;;16.54;83.09
69528;BME280;57136;51.986;4.468;2022-11-10T13:26:08;102412.94;;;16.39;83.68
69528;BME280;57136;51.986;4.468;2022-11-10T13:28:55;102408.38;;;16.11;84.58
69528;BME280;57136;51.986;4.468;2022-11-10T13:36:40;102416.47;;;16.47;83.55
69528;BME280;57136;51.986;4.468;2022-11-10T13:41:48;102412.84;;;16.26;84.96
69528;BME280;57136;51.986;4.468;2022-11-10T13:44:39;102410.28;;;16.37;83.64
69528;BME280;57136;51.986;4.468;2022-11-10T13:58:03;102435.78;;;16.52;81.68
69528;BME280;57136;51.986;4.468;2022-11-10T14:00:33;102445.38;;;16.39;82.02
69528;BME280;57136;51.986;4.468;2022-11-10T14:03:00;102453.31;;;16.44;81.39
69528;BME280;57136;51.986;4.468;2022-11-10T14:13:15;102463.72;;;16.25;82.12
69528;BME280;57136;51.986;4.468;2022-11-10T14:15:44;102463.94;;;16.64;81.30
69528;BME280;57136;51.986;4.468;2022-11-10T14:18:24;102469.25;;;16.69;81.00
69528;BME280;57136;51.986;4.468;2022-11-10T14:20:59;102477.19;;;16.81;80.60
69528;BME280;57136;51.986;4.468;2022-11-10T14:23:47;102489.31;;;16.53;80.68
69528;BME280;57136;51.986;4.468;2022-11-10T14:26:31;102489.16;;;16.25;82.09
69528;BME280;57136;51.986;4.468;2022-11-10T14:31:46;102488.13;;;16.07;82.64
69528;BME280;57136;51.986;4.468;2022-11-10T14:34:15;102490.97;;;16.37;81.90
69528;BME280;57136;51.986;4.468;2022-11-10T14:36:53;102487.34;;;16.22;82.02
69528;BME280;57136;51.986;4.468;2022-11-10T14:39:25;102492.53;;;16.10;82.64